Flight Track Log - Related Links

Times and Time Zones

All times are in EDT time to prevent confusion due to time zone crossing. See the AWE1600 flight status page for this flight to view local times or setup timezone preferences in your user account.

Time Position Orientation Groundspeed Altitude Reporting Facility
EDT Latitude Longitude Course Direction KTS MPH feet Rate Location/Type
Tue 02:02:28 PM 35.4342 -97.6503 312° West 209 241 3,900  Level Fort Worth Center
Tue 02:03:30 PM 35.3875 -97.7133 228° Southwest 278 320 7,900 3,097 Climbing Fort Worth Center
Tue 02:04:00 PM 35.1520 -97.5449 172° South  Level Estimated
Tue 02:04:32 PM 35.3161 -97.6986 170° South 298 343 10,300  Level Fort Worth Center
Tue 02:05:00 PM 35.0702 -97.5477 182° South  Level FlightAware Approximate
Tue 02:05:34 PM 35.2172 -97.6583 162° South 378 435 12,700  Level Fort Worth Center
Tue 02:06:00 PM 34.9900 -97.5284 168° South  Level Estimated
Tue 02:06:37 PM 35.0908 -97.6089 162° South 400 460 16,100  Level Fort Worth Center
Tue 02:07:00 PM 34.9019 -97.5072 180° South  Level Estimated
Tue 02:07:39 PM 34.9764 -97.5664 163° South 426 490 19,000  Level Fort Worth Center
Tue 02:08:41 PM 34.8642 -97.5411 170° South 416 479 21,600 1,935 Climbing Fort Worth Center
Tue 02:09:43 PM 34.7247 -97.5217 173° South 420 483 23,000 677 Climbing Fort Worth Center
Tue 02:10:45 PM 34.6111 -97.5047 173° South 417 480 23,000  Level Fort Worth Center
Tue 02:11:47 PM 34.4969 -97.4900 174° South 416 479 23,000  Level Fort Worth Center
Tue 02:12:49 PM 34.3825 -97.4731 173° South 415 478 23,000  Level Fort Worth Center
Tue 02:13:51 PM 34.2733 -97.4817 184° South 401 461 23,000  Level Fort Worth Center
Tue 02:14:54 PM 34.1606 -97.5353 201° Southwest 376 433 23,000 -864 Level Fort Worth Center
Tue 02:15:56 PM 34.0628 -97.5808 201° Southwest 362 417 21,200 -1,597 Descending Fort Worth Center
Tue 02:16:58 PM 33.9669 -97.6250 201° Southwest 350 403 19,700 -1,548 Descending Fort Worth Center
Tue 02:18:00 PM 33.8822 -97.6636 201° Southwest 342 394 18,000 -1,548 Descending Fort Worth Center
Tue 02:19:02 PM 33.7836 -97.6678 182° South 346 398 16,500 -1,548 Descending Fort Worth Center
Tue 02:20:04 PM 33.6861 -97.6506 172° South 340 391 14,800 -1,694 Descending Fort Worth Center
Tue 02:21:06 PM 33.5919 -97.6161 163° South 338 389 13,000 -1,536 Descending Fort Worth Center
Tue 02:22:09 PM 33.4994 -97.5883 166° South 338 389 11,600 -960 Descending Fort Worth Center
Tue 02:23:11 PM 33.3989 -97.5572 166° South 346 398 11,000 -303 Descending Fort Worth Center
Tue 02:24:08 PM 33.3167 -97.5333 166° South 316 364 11,000  Level Dallas / Fort Worth TRACON
Tue 02:25:08 PM 33.2500 -97.4667 140° Southeast 331 381 11,000  Level Dallas / Fort Worth TRACON
Tue 02:26:08 PM 33.1833 -97.4000 140° Southeast 327 376 11,000  Level Dallas / Fort Worth TRACON
Tue 02:27:02 PM 33.1167 -97.3333 140° Southeast 327 376 11,000  Level Dallas / Fort Worth TRACON
Tue 02:28:02 PM 33.0500 -97.2500 134° Southeast 316 364 11,000 -95 Level Dallas / Fort Worth TRACON
Tue 02:29:08 PM 33.0000 -97.1833 132° Southeast 280 322 10,800 -810 Descending Dallas / Fort Worth TRACON
Tue 02:30:08 PM 32.9167 -97.1667 170° South 260 299 9,300 -1,550 Descending Dallas / Fort Worth TRACON
Tue 02:31:08 PM 32.8500 -97.1667 180° South 243 280 7,700 -1,842 Descending Dallas / Fort Worth TRACON
Tue 02:32:02 PM 32.7833 -97.1667 180° South 233 268 5,800 -2,000 Descending Dallas / Fort Worth TRACON
Tue 02:33:08 PM 32.7167 -97.1667 180° South 227 261 3,700 -1,333 Descending Dallas / Fort Worth TRACON
Tue 02:34:08 PM 32.6667 -97.1500 164° South 178 205 3,000 -333 Descending Dallas / Fort Worth TRACON
Tue 02:35:14 PM 32.6667 -97.0833 90° East 176 203 3,000  Level Dallas / Fort Worth TRACON
Tue 02:36:08 PM 32.7000 -97.0500 40° Northeast 175 201 3,000  Level Dallas / Fort Worth TRACON
Tue 02:37:08 PM 32.7500 -97.0500 360° North 170 196 3,000 -400 Level Dallas / Fort Worth TRACON
Tue 02:38:08 PM 32.8000 -97.0500 360° North 169 194 2,200 -700 Descending Dallas / Fort Worth TRACON
Tue 02:39:08 PM 32.8333 -97.0500 360° North 134 154 1,600 -714 Descending Dallas / Fort Worth TRACON
Tue 02:40:14 PM 32.8667 -97.0500 360° North 132 152 700 -818 Descending Dallas / Fort Worth TRACON

Login

Don't have an account? Register now (free) for customized features, flight alerts, and more!